sensor_id;sensor_type;location;lat;lon;timestamp;P1;durP1;ratioP1;P2;durP2;ratioP2
6928;SDS011;3504;52.616;13.238;2023-03-21T00:04:01;13.20;;;9.43;;
6928;SDS011;3504;52.616;13.238;2023-03-21T00:09:02;12.27;;;9.53;;
6928;SDS011;3504;52.616;13.238;2023-03-21T00:14:03;12.13;;;8.73;;
6928;SDS011;3504;52.616;13.238;2023-03-21T00:19:07;12.23;;;8.47;;
6928;SDS011;3504;52.616;13.238;2023-03-21T00:24:08;12.70;;;9.20;;
6928;SDS011;3504;52.616;13.238;2023-03-21T00:29:09;14.43;;;8.23;;
6928;SDS011;3504;52.616;13.238;2023-03-21T00:34:09;8.77;;;7.83;;
6928;SDS011;3504;52.616;13.238;2023-03-21T00:39:10;9.53;;;8.20;;
6928;SDS011;3504;52.616;13.238;2023-03-21T00:44:11;12.43;;;8.50;;
6928;SDS011;3504;52.616;13.238;2023-03-21T00:49:14;10.20;;;8.40;;
6928;SDS011;3504;52.616;13.238;2023-03-21T00:54:15;14.00;;;9.73;;
6928;SDS011;3504;52.616;13.238;2023-03-21T00:59:16;12.03;;;8.87;;
6928;SDS011;3504;52.616;13.238;2023-03-21T01:04:17;10.70;;;8.43;;
6928;SDS011;3504;52.616;13.238;2023-03-21T01:09:19;14.67;;;9.37;;
6928;SDS011;3504;52.616;13.238;2023-03-21T01:14:22;19.87;;;12.07;;
6928;SDS011;3504;52.616;13.238;2023-03-21T01:19:23;16.93;;;13.60;;
6928;SDS011;3504;52.616;13.238;2023-03-21T01:24:27;19.63;;;14.67;;
6928;SDS011;3504;52.616;13.238;2023-03-21T01:29:27;21.20;;;14.67;;
6928;SDS011;3504;52.616;13.238;2023-03-21T01:34:28;18.17;;;15.00;;
6928;SDS011;3504;52.616;13.238;2023-03-21T01:39:29;18.97;;;15.53;;
6928;SDS011;3504;52.616;13.238;2023-03-21T01:44:50;21.17;;;15.13;;
6928;SDS011;3504;52.616;13.238;2023-03-21T01:50:02;21.93;;;15.17;;
6928;SDS011;3504;52.616;13.238;2023-03-21T01:55:18;24.00;;;15.67;;
6928;SDS011;3504;52.616;13.238;2023-03-21T02:00:30;18.70;;;14.90;;
6928;SDS011;3504;52.616;13.238;2023-03-21T02:05:54;19.83;;;15.50;;
6928;SDS011;3504;52.616;13.238;2023-03-21T02:11:03;20.00;;;16.07;;
6928;SDS011;3504;52.616;13.238;2023-03-21T02:27:12;23.53;;;17.00;;
6928;SDS011;3504;52.616;13.238;2023-03-21T02:32:28;21.47;;;16.77;;
6928;SDS011;3504;52.616;13.238;2023-03-21T02:43:12;23.80;;;18.53;;
6928;SDS011;3504;52.616;13.238;2023-03-21T02:48:23;24.50;;;19.93;;
6928;SDS011;3504;52.616;13.238;2023-03-21T02:53:32;27.37;;;21.50;;
6928;SDS011;3504;52.616;13.238;2023-03-21T02:58:40;29.60;;;23.47;;
6928;SDS011;3504;52.616;13.238;2023-03-21T03:03:43;32.70;;;25.40;;
6928;SDS011;3504;52.616;13.238;2023-03-21T03:08:56;36.23;;;25.97;;
6928;SDS011;3504;52.616;13.238;2023-03-21T03:14:43;32.40;;;25.53;;
6928;SDS011;3504;52.616;13.238;2023-03-21T03:20:16;38.53;;;27.07;;
6928;SDS011;3504;52.616;13.238;2023-03-21T03:25:23;40.23;;;28.27;;
6928;SDS011;3504;52.616;13.238;2023-03-21T03:30:32;41.13;;;29.00;;
6928;SDS011;3504;52.616;13.238;2023-03-21T03:35:36;42.50;;;29.40;;
6928;SDS011;3504;52.616;13.238;2023-03-21T03:40:40;44.80;;;29.67;;
6928;SDS011;3504;52.616;13.238;2023-03-21T03:46:06;42.90;;;29.17;;
6928;SDS011;3504;52.616;13.238;2023-03-21T03:51:19;41.60;;;29.07;;
6928;SDS011;3504;52.616;13.238;2023-03-21T03:56:40;47.57;;;29.97;;
6928;SDS011;3504;52.616;13.238;2023-03-21T04:01:41;40.53;;;29.13;;
6928;SDS011;3504;52.616;13.238;2023-03-21T04:06:42;38.97;;;28.87;;
6928;SDS011;3504;52.616;13.238;2023-03-21T04:11:53;37.67;;;27.73;;
6928;SDS011;3504;52.616;13.238;2023-03-21T04:16:53;40.90;;;28.40;;
6928;SDS011;3504;52.616;13.238;2023-03-21T04:21:54;39.10;;;29.10;;
6928;SDS011;3504;52.616;13.238;2023-03-21T04:26:55;43.67;;;29.00;;
6928;SDS011;3504;52.616;13.238;2023-03-21T04:32:12;39.23;;;28.20;;
6928;SDS011;3504;52.616;13.238;2023-03-21T04:37:26;42.43;;;28.73;;
6928;SDS011;3504;52.616;13.238;2023-03-21T04:42:27;40.07;;;27.77;;
6928;SDS011;3504;52.616;13.238;2023-03-21T04:47:28;42.20;;;27.27;;
6928;SDS011;3504;52.616;13.238;2023-03-21T04:52:29;50.70;;;29.57;;
6928;SDS011;3504;52.616;13.238;2023-03-21T04:57:30;40.93;;;29.60;;
6928;SDS011;3504;52.616;13.238;2023-03-21T05:02:31;43.00;;;28.30;;
6928;SDS011;3504;52.616;13.238;2023-03-21T05:07:36;40.53;;;27.57;;
6928;SDS011;3504;52.616;13.238;2023-03-21T05:12:40;42.37;;;27.97;;
6928;SDS011;3504;52.616;13.238;2023-03-21T05:17:41;41.87;;;27.00;;
6928;SDS011;3504;52.616;13.238;2023-03-21T05:22:42;48.47;;;28.57;;
6928;SDS011;3504;52.616;13.238;2023-03-21T05:27:47;42.07;;;28.07;;
6928;SDS011;3504;52.616;13.238;2023-03-21T05:32:55;41.73;;;26.80;;
6928;SDS011;3504;52.616;13.238;2023-03-21T05:37:57;42.70;;;28.60;;
6928;SDS011;3504;52.616;13.238;2023-03-21T05:43:00;41.70;;;27.77;;
6928;SDS011;3504;52.616;13.238;2023-03-21T05:48:01;41.60;;;27.00;;
6928;SDS011;3504;52.616;13.238;2023-03-21T05:53:06;44.53;;;29.37;;
6928;SDS011;3504;52.616;13.238;2023-03-21T05:58:07;46.87;;;28.33;;
6928;SDS011;3504;52.616;13.238;2023-03-21T06:03:08;43.10;;;28.57;;
6928;SDS011;3504;52.616;13.238;2023-03-21T06:08:26;43.23;;;27.70;;
6928;SDS011;3504;52.616;13.238;2023-03-21T06:13:27;45.90;;;28.73;;
6928;SDS011;3504;52.616;13.238;2023-03-21T06:18:28;42.40;;;27.70;;
6928;SDS011;3504;52.616;13.238;2023-03-21T06:23:36;45.30;;;28.33;;
6928;SDS011;3504;52.616;13.238;2023-03-21T06:28:36;48.30;;;29.43;;
6928;SDS011;3504;52.616;13.238;2023-03-21T06:33:40;42.07;;;26.43;;
6928;SDS011;3504;52.616;13.238;2023-03-21T06:38:41;50.53;;;28.90;;
6928;SDS011;3504;52.616;13.238;2023-03-21T06:43:43;46.37;;;29.27;;
6928;SDS011;3504;52.616;13.238;2023-03-21T06:48:45;47.33;;;29.20;;
6928;SDS011;3504;52.616;13.238;2023-03-21T06:53:46;46.00;;;30.03;;
6928;SDS011;3504;52.616;13.238;2023-03-21T06:59:05;48.60;;;31.03;;
6928;SDS011;3504;52.616;13.238;2023-03-21T07:04:28;47.07;;;29.80;;
6928;SDS011;3504;52.616;13.238;2023-03-21T07:09:30;51.20;;;30.27;;
6928;SDS011;3504;52.616;13.238;2023-03-21T07:14:36;47.43;;;29.83;;
6928;SDS011;3504;52.616;13.238;2023-03-21T07:19:37;48.30;;;31.30;;
6928;SDS011;3504;52.616;13.238;2023-03-21T07:24:38;49.40;;;31.20;;
6928;SDS011;3504;52.616;13.238;2023-03-21T07:29:38;51.60;;;31.27;;
6928;SDS011;3504;52.616;13.238;2023-03-21T07:34:39;53.40;;;32.27;;
6928;SDS011;3504;52.616;13.238;2023-03-21T07:39:41;50.53;;;30.00;;
6928;SDS011;3504;52.616;13.238;2023-03-21T07:44:42;48.30;;;30.67;;
6928;SDS011;3504;52.616;13.238;2023-03-21T07:49:43;46.53;;;31.20;;
6928;SDS011;3504;52.616;13.238;2023-03-21T07:54:43;50.50;;;30.87;;
6928;SDS011;3504;52.616;13.238;2023-03-21T07:59:44;54.80;;;31.70;;
6928;SDS011;3504;52.616;13.238;2023-03-21T08:04:44;48.67;;;31.13;;
6928;SDS011;3504;52.616;13.238;2023-03-21T08:09:45;55.40;;;31.73;;
6928;SDS011;3504;52.616;13.238;2023-03-21T08:14:46;48.60;;;31.10;;
6928;SDS011;3504;52.616;13.238;2023-03-21T08:19:47;54.20;;;29.50;;
6928;SDS011;3504;52.616;13.238;2023-03-21T08:24:48;51.43;;;31.77;;
6928;SDS011;3504;52.616;13.238;2023-03-21T08:29:48;53.67;;;31.00;;
6928;SDS011;3504;52.616;13.238;2023-03-21T08:34:49;45.47;;;29.37;;
6928;SDS011;3504;52.616;13.238;2023-03-21T08:39:50;48.80;;;30.47;;
6928;SDS011;3504;52.616;13.238;2023-03-21T08:44:50;44.07;;;28.83;;
6928;SDS011;3504;52.616;13.238;2023-03-21T08:49:51;46.40;;;29.47;;
6928;SDS011;3504;52.616;13.238;2023-03-21T08:54:52;46.80;;;27.80;;
6928;SDS011;3504;52.616;13.238;2023-03-21T08:59:53;43.70;;;28.37;;
6928;SDS011;3504;52.616;13.238;2023-03-21T09:04:53;39.60;;;26.60;;
6928;SDS011;3504;52.616;13.238;2023-03-21T09:09:57;44.43;;;27.33;;
6928;SDS011;3504;52.616;13.238;2023-03-21T09:14:59;42.37;;;27.47;;
6928;SDS011;3504;52.616;13.238;2023-03-21T09:20:01;42.10;;;27.70;;
6928;SDS011;3504;52.616;13.238;2023-03-21T09:25:10;44.10;;;26.70;;
6928;SDS011;3504;52.616;13.238;2023-03-21T09:30:12;42.60;;;26.60;;
6928;SDS011;3504;52.616;13.238;2023-03-21T09:35:16;41.77;;;25.97;;
6928;SDS011;3504;52.616;13.238;2023-03-21T09:40:19;39.20;;;25.93;;
6928;SDS011;3504;52.616;13.238;2023-03-21T09:45:31;39.73;;;25.20;;
6928;SDS011;3504;52.616;13.238;2023-03-21T09:50:41;37.17;;;24.87;;
6928;SDS011;3504;52.616;13.238;2023-03-21T09:55:42;43.57;;;25.23;;
6928;SDS011;3504;52.616;13.238;2023-03-21T10:00:44;39.60;;;24.73;;
6928;SDS011;3504;52.616;13.238;2023-03-21T10:05:50;36.60;;;23.97;;
6928;SDS011;3504;52.616;13.238;2023-03-21T10:11:00;39.43;;;24.20;;
6928;SDS011;3504;52.616;13.238;2023-03-21T10:16:27;37.83;;;24.93;;
6928;SDS011;3504;52.616;13.238;2023-03-21T10:21:31;36.10;;;23.57;;
6928;SDS011;3504;52.616;13.238;2023-03-21T10:26:32;34.17;;;23.63;;
6928;SDS011;3504;52.616;13.238;2023-03-21T10:31:32;36.43;;;22.93;;
6928;SDS011;3504;52.616;13.238;2023-03-21T10:36:33;33.60;;;23.13;;
6928;SDS011;3504;52.616;13.238;2023-03-21T10:41:35;33.50;;;21.73;;
6928;SDS011;3504;52.616;13.238;2023-03-21T10:46:37;32.67;;;21.60;;
6928;SDS011;3504;52.616;13.238;2023-03-21T10:51:37;34.37;;;22.13;;
6928;SDS011;3504;52.616;13.238;2023-03-21T10:56:40;32.27;;;21.83;;
6928;SDS011;3504;52.616;13.238;2023-03-21T11:01:49;30.03;;;20.30;;
6928;SDS011;3504;52.616;13.238;2023-03-21T11:06:56;28.90;;;19.17;;
6928;SDS011;3504;52.616;13.238;2023-03-21T11:12:01;28.67;;;18.47;;
6928;SDS011;3504;52.616;13.238;2023-03-21T11:22:23;28.77;;;18.70;;
6928;SDS011;3504;52.616;13.238;2023-03-21T11:27:28;26.93;;;18.70;;
6928;SDS011;3504;52.616;13.238;2023-03-21T11:32:31;25.27;;;18.13;;
6928;SDS011;3504;52.616;13.238;2023-03-21T11:37:42;24.00;;;16.67;;
6928;SDS011;3504;52.616;13.238;2023-03-21T11:42:47;23.70;;;17.57;;
6928;SDS011;3504;52.616;13.238;2023-03-21T11:47:52;25.87;;;16.77;;
6928;SDS011;3504;52.616;13.238;2023-03-21T12:09:31;26.10;;;15.73;;
6928;SDS011;3504;52.616;13.238;2023-03-21T12:14:46;22.00;;;14.83;;
6928;SDS011;3504;52.616;13.238;2023-03-21T12:25:39;22.03;;;15.07;;
6928;SDS011;3504;52.616;13.238;2023-03-21T12:47:22;17.07;;;13.37;;
6928;SDS011;3504;52.616;13.238;2023-03-21T12:52:30;18.23;;;12.90;;
6928;SDS011;3504;52.616;13.238;2023-03-21T12:57:36;18.43;;;13.07;;
6928;SDS011;3504;52.616;13.238;2023-03-21T13:02:54;17.43;;;12.90;;
6928;SDS011;3504;52.616;13.238;2023-03-21T13:08:04;17.23;;;12.10;;
6928;SDS011;3504;52.616;13.238;2023-03-21T13:13:15;15.97;;;12.53;;
6928;SDS011;3504;52.616;13.238;2023-03-21T13:29:28;16.10;;;11.47;;
6928;SDS011;3504;52.616;13.238;2023-03-21T13:35:34;16.30;;;11.43;;
6928;SDS011;3504;52.616;13.238;2023-03-21T13:40:39;15.63;;;11.43;;
6928;SDS011;3504;52.616;13.238;2023-03-21T13:45:50;13.80;;;11.40;;
6928;SDS011;3504;52.616;13.238;2023-03-21T13:50:58;16.47;;;12.53;;
6928;SDS011;3504;52.616;13.238;2023-03-21T14:01:25;18.07;;;12.43;;
6928;SDS011;3504;52.616;13.238;2023-03-21T14:12:13;18.30;;;12.60;;
6928;SDS011;3504;52.616;13.238;2023-03-21T14:17:28;18.00;;;12.60;;
6928;SDS011;3504;52.616;13.238;2023-03-21T14:22:31;17.00;;;12.03;;
6928;SDS011;3504;52.616;13.238;2023-03-21T14:27:32;17.60;;;12.30;;
6928;SDS011;3504;52.616;13.238;2023-03-21T14:32:34;16.33;;;11.83;;
6928;SDS011;3504;52.616;13.238;2023-03-21T14:37:39;14.83;;;10.67;;
6928;SDS011;3504;52.616;13.238;2023-03-21T14:42:44;13.87;;;9.93;;
6928;SDS011;3504;52.616;13.238;2023-03-21T14:47:53;12.90;;;10.57;;
6928;SDS011;3504;52.616;13.238;2023-03-21T14:52:59;14.27;;;9.40;;
6928;SDS011;3504;52.616;13.238;2023-03-21T14:58:00;15.53;;;10.73;;
6928;SDS011;3504;52.616;13.238;2023-03-21T15:03:00;11.90;;;10.07;;
6928;SDS011;3504;52.616;13.238;2023-03-21T15:13:21;16.80;;;11.50;;
6928;SDS011;3504;52.616;13.238;2023-03-21T15:18:26;13.83;;;10.60;;
6928;SDS011;3504;52.616;13.238;2023-03-21T15:23:40;16.03;;;10.63;;
6928;SDS011;3504;52.616;13.238;2023-03-21T15:28:47;13.00;;;10.07;;
6928;SDS011;3504;52.616;13.238;2023-03-21T15:33:54;14.53;;;11.43;;
6928;SDS011;3504;52.616;13.238;2023-03-21T15:38:55;18.13;;;11.43;;
6928;SDS011;3504;52.616;13.238;2023-03-21T15:54:16;14.17;;;11.10;;
6928;SDS011;3504;52.616;13.238;2023-03-21T15:59:40;14.63;;;11.00;;
6928;SDS011;3504;52.616;13.238;2023-03-21T16:10:24;12.37;;;10.03;;
6928;SDS011;3504;52.616;13.238;2023-03-21T16:15:27;14.67;;;11.43;;
6928;SDS011;3504;52.616;13.238;2023-03-21T16:20:31;14.63;;;10.57;;
6928;SDS011;3504;52.616;13.238;2023-03-21T16:25:45;15.03;;;10.77;;
6928;SDS011;3504;52.616;13.238;2023-03-21T16:30:46;14.17;;;10.83;;
6928;SDS011;3504;52.616;13.238;2023-03-21T16:35:46;14.27;;;11.43;;
6928;SDS011;3504;52.616;13.238;2023-03-21T16:40:47;16.30;;;13.03;;
6928;SDS011;3504;52.616;13.238;2023-03-21T16:45:47;14.50;;;11.80;;
6928;SDS011;3504;52.616;13.238;2023-03-21T16:50:48;15.70;;;11.80;;
6928;SDS011;3504;52.616;13.238;2023-03-21T16:55:48;14.30;;;10.37;;
6928;SDS011;3504;52.616;13.238;2023-03-21T17:00:49;14.70;;;11.73;;
6928;SDS011;3504;52.616;13.238;2023-03-21T17:05:49;14.07;;;11.57;;
6928;SDS011;3504;52.616;13.238;2023-03-21T17:10:50;11.50;;;10.00;;
6928;SDS011;3504;52.616;13.238;2023-03-21T17:15:50;14.40;;;10.70;;
6928;SDS011;3504;52.616;13.238;2023-03-21T17:20:51;16.10;;;11.00;;
6928;SDS011;3504;52.616;13.238;2023-03-21T17:25:51;12.73;;;11.20;;
6928;SDS011;3504;52.616;13.238;2023-03-21T17:30:52;13.07;;;10.77;;
6928;SDS011;3504;52.616;13.238;2023-03-21T17:35:52;14.10;;;12.23;;
6928;SDS011;3504;52.616;13.238;2023-03-21T17:40:53;14.23;;;11.70;;
6928;SDS011;3504;52.616;13.238;2023-03-21T17:45:53;15.87;;;13.30;;
6928;SDS011;3504;52.616;13.238;2023-03-21T17:50:54;17.37;;;13.73;;
6928;SDS011;3504;52.616;13.238;2023-03-21T17:55:55;19.20;;;14.07;;
6928;SDS011;3504;52.616;13.238;2023-03-21T18:00:56;17.97;;;14.83;;
6928;SDS011;3504;52.616;13.238;2023-03-21T18:05:56;26.57;;;17.63;;
6928;SDS011;3504;52.616;13.238;2023-03-21T18:10:57;31.47;;;22.83;;
6928;SDS011;3504;52.616;13.238;2023-03-21T18:15:58;25.80;;;18.97;;
6928;SDS011;3504;52.616;13.238;2023-03-21T18:20:59;23.83;;;18.00;;
6928;SDS011;3504;52.616;13.238;2023-03-21T18:25:59;22.77;;;18.53;;
6928;SDS011;3504;52.616;13.238;2023-03-21T18:31:00;24.97;;;18.37;;
6928;SDS011;3504;52.616;13.238;2023-03-21T18:36:00;22.60;;;18.67;;
6928;SDS011;3504;52.616;13.238;2023-03-21T18:41:01;24.40;;;20.20;;
6928;SDS011;3504;52.616;13.238;2023-03-21T18:46:02;27.40;;;20.70;;
6928;SDS011;3504;52.616;13.238;2023-03-21T18:51:04;26.33;;;21.00;;
6928;SDS011;3504;52.616;13.238;2023-03-21T18:56:05;26.50;;;23.30;;
6928;SDS011;3504;52.616;13.238;2023-03-21T19:01:06;25.93;;;22.37;;
6928;SDS011;3504;52.616;13.238;2023-03-21T19:06:06;26.40;;;22.40;;
6928;SDS011;3504;52.616;13.238;2023-03-21T19:11:07;28.40;;;22.50;;
6928;SDS011;3504;52.616;13.238;2023-03-21T19:16:09;26.07;;;22.80;;
6928;SDS011;3504;52.616;13.238;2023-03-21T19:21:09;30.23;;;26.07;;
6928;SDS011;3504;52.616;13.238;2023-03-21T19:26:10;32.20;;;27.60;;
6928;SDS011;3504;52.616;13.238;2023-03-21T19:31:11;33.27;;;26.90;;
6928;SDS011;3504;52.616;13.238;2023-03-21T19:36:11;36.43;;;29.00;;
6928;SDS011;3504;52.616;13.238;2023-03-21T19:41:12;37.50;;;30.27;;
6928;SDS011;3504;52.616;13.238;2023-03-21T19:46:13;36.80;;;29.20;;
6928;SDS011;3504;52.616;13.238;2023-03-21T19:51:15;34.23;;;28.30;;
6928;SDS011;3504;52.616;13.238;2023-03-21T19:56:16;43.60;;;34.70;;
6928;SDS011;3504;52.616;13.238;2023-03-21T20:01:16;39.57;;;32.47;;
6928;SDS011;3504;52.616;13.238;2023-03-21T20:06:17;39.87;;;32.93;;
6928;SDS011;3504;52.616;13.238;2023-03-21T20:11:18;38.87;;;31.73;;
6928;SDS011;3504;52.616;13.238;2023-03-21T20:16:19;37.43;;;30.53;;
6928;SDS011;3504;52.616;13.238;2023-03-21T20:21:20;34.83;;;29.20;;
6928;SDS011;3504;52.616;13.238;2023-03-21T20:26:21;37.10;;;30.73;;
6928;SDS011;3504;52.616;13.238;2023-03-21T20:31:22;41.23;;;32.23;;
6928;SDS011;3504;52.616;13.238;2023-03-21T20:36:23;40.37;;;32.27;;
6928;SDS011;3504;52.616;13.238;2023-03-21T20:41:23;36.10;;;28.53;;
6928;SDS011;3504;52.616;13.238;2023-03-21T20:46:24;38.53;;;30.57;;
6928;SDS011;3504;52.616;13.238;2023-03-21T20:51:25;36.57;;;29.83;;
6928;SDS011;3504;52.616;13.238;2023-03-21T20:56:26;38.90;;;30.13;;
6928;SDS011;3504;52.616;13.238;2023-03-21T21:01:27;41.23;;;31.37;;
6928;SDS011;3504;52.616;13.238;2023-03-21T21:06:27;41.30;;;31.97;;
6928;SDS011;3504;52.616;13.238;2023-03-21T21:11:28;40.80;;;30.83;;
6928;SDS011;3504;52.616;13.238;2023-03-21T21:16:29;40.37;;;32.47;;
6928;SDS011;3504;52.616;13.238;2023-03-21T21:21:30;40.30;;;31.80;;
6928;SDS011;3504;52.616;13.238;2023-03-21T21:26:32;42.17;;;32.83;;
6928;SDS011;3504;52.616;13.238;2023-03-21T21:31:32;44.27;;;34.37;;
6928;SDS011;3504;52.616;13.238;2023-03-21T21:36:34;43.90;;;33.73;;
6928;SDS011;3504;52.616;13.238;2023-03-21T21:41:35;44.33;;;32.20;;
6928;SDS011;3504;52.616;13.238;2023-03-21T21:46:35;44.20;;;34.33;;
6928;SDS011;3504;52.616;13.238;2023-03-21T21:51:36;44.87;;;32.57;;
6928;SDS011;3504;52.616;13.238;2023-03-21T21:56:39;44.13;;;32.67;;
6928;SDS011;3504;52.616;13.238;2023-03-21T22:01:40;40.13;;;31.90;;
6928;SDS011;3504;52.616;13.238;2023-03-21T22:06:41;41.23;;;31.67;;
6928;SDS011;3504;52.616;13.238;2023-03-21T22:11:42;48.03;;;34.97;;
6928;SDS011;3504;52.616;13.238;2023-03-21T22:16:42;39.73;;;31.27;;
6928;SDS011;3504;52.616;13.238;2023-03-21T22:21:43;39.13;;;30.80;;
6928;SDS011;3504;52.616;13.238;2023-03-21T22:26:44;42.50;;;33.00;;
6928;SDS011;3504;52.616;13.238;2023-03-21T22:31:45;46.90;;;35.73;;
6928;SDS011;3504;52.616;13.238;2023-03-21T22:36:46;49.17;;;36.93;;
6928;SDS011;3504;52.616;13.238;2023-03-21T22:41:49;46.73;;;35.40;;
6928;SDS011;3504;52.616;13.238;2023-03-21T22:46:49;44.33;;;33.77;;
6928;SDS011;3504;52.616;13.238;2023-03-21T22:51:50;50.50;;;35.53;;
6928;SDS011;3504;52.616;13.238;2023-03-21T22:56:50;46.53;;;34.80;;
6928;SDS011;3504;52.616;13.238;2023-03-21T23:01:51;56.10;;;37.73;;
6928;SDS011;3504;52.616;13.238;2023-03-21T23:06:52;45.67;;;34.97;;
6928;SDS011;3504;52.616;13.238;2023-03-21T23:11:54;47.83;;;35.17;;
6928;SDS011;3504;52.616;13.238;2023-03-21T23:16:54;48.80;;;36.80;;
6928;SDS011;3504;52.616;13.238;2023-03-21T23:21:59;45.63;;;33.23;;
6928;SDS011;3504;52.616;13.238;2023-03-21T23:27:00;46.50;;;33.43;;
6928;SDS011;3504;52.616;13.238;2023-03-21T23:32:01;45.73;;;32.53;;
6928;SDS011;3504;52.616;13.238;2023-03-21T23:37:01;44.67;;;31.80;;
6928;SDS011;3504;52.616;13.238;2023-03-21T23:42:02;45.40;;;30.87;;
6928;SDS011;3504;52.616;13.238;2023-03-21T23:47:02;38.97;;;27.83;;
6928;SDS011;3504;52.616;13.238;2023-03-21T23:52:03;34.23;;;26.97;;
6928;SDS011;3504;52.616;13.238;2023-03-21T23:57:04;39.13;;;26.20;;
